Terminal Aerodrome Forecast
Issued by NWS

Home | Current Version | Previous Version | Text Only | Print | Product List | Glossary Off
Versions: 1 2 3 4 5 6 7 8 9 10 11 12 13 14 15 16 17 18 19 20 21 22 23

000
FTUS43 KABR 162100 AAA
TAFATY
TAF AMD
KATY 162111Z 1621/1718 32010KT P6SM BKN016
     FM170300 33006KT P6SM OVC015
     FM170900 35003KT P6SM SCT015=

USA.gov is the U.S. government's official web portal to all federal, state and local government web resources and services.